createdAt,value
2023-06-30T00:01:04.784Z,98231.55
2023-06-30T00:03:05.906Z,98233.71
2023-06-30T00:05:06.783Z,98233.66
2023-06-30T00:07:00.076Z,98237.39
2023-06-30T00:09:00.961Z,98228.08
2023-06-30T00:11:01.913Z,98227.50
2023-06-30T00:13:02.949Z,98225.55
2023-06-30T00:15:03.714Z,98224.88
2023-06-30T00:17:03.856Z,98225.35
2023-06-30T00:19:04.721Z,98204.28
2023-06-30T00:21:05.309Z,98223.65
2023-06-30T00:23:06.344Z,98215.36
2023-06-30T00:24:55.720Z,98224.13
2023-06-30T00:26:32.819Z,98223.48
2023-06-30T00:28:33.556Z,98221.98
2023-06-30T00:30:20.874Z,98218.81
2023-06-30T00:32:21.545Z,98216.47
2023-06-30T00:34:22.469Z,98218.24
2023-06-30T00:36:17.298Z,98217.70
2023-06-30T00:38:17.782Z,98215.35
2023-06-30T00:40:18.464Z,98212.77
2023-06-30T00:42:17.235Z,98213.90
2023-06-30T00:44:10.479Z,98208.91
2023-06-30T00:46:10.880Z,98207.06
2023-06-30T00:48:11.066Z,98207.63
2023-06-30T00:50:11.930Z,98206.55
2023-06-30T00:52:12.498Z,98206.33
2023-06-30T00:54:13.235Z,98203.15
2023-06-30T00:56:13.989Z,98203.55
2023-06-30T00:58:14.600Z,98196.96
2023-06-30T01:00:07.416Z,98196.59
2023-06-30T01:02:08.398Z,98192.85
2023-06-30T01:03:54.490Z,98192.69
2023-06-30T01:05:55.375Z,98193.96
2023-06-30T01:07:55.988Z,98192.27
2023-06-30T01:09:55.459Z,98189.86
2023-06-30T01:11:45.752Z,98189.38
2023-06-30T01:13:46.083Z,98189.33
2023-06-30T01:15:47.234Z,98188.78
2023-06-30T01:17:41.634Z,98185.85
2023-06-30T01:19:36.259Z,98183.77
2023-06-30T01:21:11.230Z,98174.44
2023-06-30T01:23:11.660Z,98182.09
2023-06-30T01:25:10.915Z,98178.02
2023-06-30T01:27:11.691Z,98181.28
2023-06-30T01:29:13.104Z,98184.92
2023-06-30T01:31:14.010Z,98183.79
2023-06-30T01:33:07.619Z,98179.61
2023-06-30T01:34:59.330Z,98179.75
2023-06-30T01:36:58.438Z,98176.66
2023-06-30T01:38:57.766Z,98174.98
2023-06-30T01:40:51.294Z,98175.35
2023-06-30T01:42:52.243Z,98170.85
2023-06-30T01:44:47.896Z,98170.95
2023-06-30T01:46:47.567Z,98171.82
2023-06-30T01:48:40.960Z,98169.48
2023-06-30T01:50:36.314Z,98170.95
2023-06-30T01:52:36.890Z,98172.27
2023-06-30T01:54:37.807Z,98165.80
2023-06-30T01:56:28.337Z,98172.70
2023-06-30T01:58:29.316Z,98172.88
2023-06-30T02:00:30.218Z,98168.54
2023-06-30T02:02:31.084Z,98170.38
2023-06-30T02:04:31.616Z,98174.12
2023-06-30T02:06:32.382Z,98168.94
2023-06-30T02:08:33.298Z,98174.30
2023-06-30T02:10:22.608Z,98172.31
2023-06-30T02:12:23.385Z,98168.96
2023-06-30T02:14:15.581Z,98174.95
2023-06-30T02:16:08.578Z,98169.08
2023-06-30T02:18:08.250Z,98169.56
2023-06-30T02:20:08.561Z,98166.33
2023-06-30T02:22:09.456Z,98162.85
2023-06-30T02:24:10.534Z,98167.86
2023-06-30T02:26:11.400Z,98164.39
2023-06-30T02:28:10.617Z,98163.13
2023-06-30T02:30:11.445Z,98160.86
2023-06-30T02:32:10.580Z,98163.80
2023-06-30T02:34:11.074Z,98159.89
2023-06-30T02:36:11.847Z,98160.62
2023-06-30T02:38:05.431Z,98158.81
2023-06-30T02:40:06.443Z,98158.98
2023-06-30T02:42:06.028Z,98154.86
2023-06-30T02:44:06.727Z,98158.79
2023-06-30T02:46:07.350Z,98157.48
2023-06-30T02:48:08.387Z,98154.24
2023-06-30T02:50:09.023Z,98154.10
2023-06-30T02:52:09.677Z,98155.85
2023-06-30T02:54:10.427Z,98154.51
2023-06-30T02:56:11.339Z,98154.89
2023-06-30T02:58:04.865Z,98156.28
2023-06-30T03:00:02.319Z,98156.34
2023-06-30T03:01:55.374Z,98155.89
2023-06-30T03:03:54.254Z,98154.91
2023-06-30T03:05:40.531Z,98157.48
2023-06-30T03:07:41.139Z,98154.23
2023-06-30T03:09:27.320Z,98155.41
2023-06-30T03:11:15.268Z,98154.39
2023-06-30T03:13:09.992Z,98152.71
2023-06-30T03:15:10.783Z,98150.97
2023-06-30T03:17:06.322Z,98149.77
2023-06-30T03:19:06.266Z,98149.90
2023-06-30T03:20:58.026Z,98146.73
2023-06-30T03:22:58.597Z,98144.91
2023-06-30T03:24:59.474Z,98145.33
2023-06-30T03:27:00.076Z,98140.20
2023-06-30T03:29:01.018Z,98135.55
2023-06-30T03:31:00.259Z,98143.90
2023-06-30T03:32:54.368Z,98142.59
2023-06-30T03:34:47.797Z,98143.77
2023-06-30T03:36:49.009Z,98140.48
2023-06-30T03:38:49.381Z,98141.66
2023-06-30T03:40:37.489Z,98141.75
2023-06-30T03:42:38.182Z,98142.56
2023-06-30T03:44:14.361Z,98133.83
2023-06-30T03:46:04.732Z,98138.76
2023-06-30T03:48:05.167Z,98140.04
2023-06-30T03:50:04.619Z,98142.30
2023-06-30T03:51:57.898Z,98140.41
2023-06-30T03:53:51.159Z,98145.00
2023-06-30T03:55:50.394Z,98143.50
2023-06-30T03:57:40.742Z,98142.41
2023-06-30T03:59:41.285Z,98142.48
2023-06-30T04:01:41.962Z,98141.86
2023-06-30T04:03:42.799Z,98144.40
2023-06-30T04:05:35.955Z,98148.41
2023-06-30T04:07:26.828Z,98148.67
2023-06-30T04:09:27.915Z,98153.21
2023-06-30T04:11:28.885Z,98153.53
2023-06-30T04:13:29.417Z,98151.02
2023-06-30T04:15:28.928Z,98153.40
2023-06-30T04:17:29.547Z,98149.64
2023-06-30T04:19:30.516Z,98153.35
2023-06-30T04:21:29.383Z,98154.41
2023-06-30T04:23:29.953Z,98150.95
2023-06-30T04:25:30.243Z,98152.48
2023-06-30T04:27:24.991Z,98154.14
2023-06-30T04:29:24.748Z,98150.67
2023-06-30T04:31:25.915Z,98153.65
2023-06-30T04:33:26.502Z,98154.73
2023-06-30T04:35:27.232Z,98150.33
2023-06-30T04:37:17.708Z,98149.65
2023-06-30T04:39:18.682Z,98149.56
2023-06-30T04:41:19.643Z,98147.50
2023-06-30T04:43:12.762Z,98136.52
2023-06-30T04:45:08.336Z,98140.33
2023-06-30T04:47:08.783Z,98139.23
2023-06-30T04:49:03.066Z,98135.80
2023-06-30T04:51:04.026Z,98135.16
2023-06-30T04:53:04.454Z,98135.77
2023-06-30T04:55:03.463Z,98130.59
2023-06-30T04:57:04.410Z,98133.83
2023-06-30T04:59:04.860Z,98132.56
2023-06-30T05:00:58.508Z,98133.02
2023-06-30T05:02:51.490Z,98136.13
2023-06-30T05:04:41.128Z,98133.11
2023-06-30T05:06:41.952Z,98129.45
2023-06-30T05:08:31.595Z,98128.36
2023-06-30T05:10:32.315Z,98130.48
2023-06-30T05:12:26.101Z,98132.85
2023-06-30T05:14:19.241Z,98133.48
2023-06-30T05:16:19.949Z,98130.87
2023-06-30T05:18:13.475Z,98133.42
2023-06-30T05:20:14.240Z,98135.80
2023-06-30T05:22:14.816Z,98133.82
2023-06-30T05:24:09.235Z,98135.23
2023-06-30T05:26:02.568Z,98137.27
2023-06-30T05:28:03.186Z,98130.40
2023-06-30T05:30:03.931Z,98127.70
2023-06-30T05:31:47.418Z,98128.66
2023-06-30T05:33:47.981Z,98114.11
2023-06-30T05:35:48.730Z,98131.17
2023-06-30T05:37:40.686Z,98131.52
2023-06-30T05:39:41.527Z,98128.96
2023-06-30T05:41:42.275Z,98132.20
2023-06-30T05:43:41.468Z,98134.40
2023-06-30T05:45:42.292Z,98136.83
2023-06-30T05:47:33.159Z,98133.66
2023-06-30T05:49:26.277Z,98136.89
2023-06-30T05:51:27.444Z,98137.71
2023-06-30T05:53:26.882Z,98137.38
2023-06-30T05:55:27.374Z,98134.89
2023-06-30T05:57:28.320Z,98139.77
2023-06-30T05:59:29.564Z,98143.54
2023-06-30T06:01:29.944Z,98139.45
2023-06-30T06:03:31.083Z,98143.42
2023-06-30T06:05:32.268Z,98144.23
2023-06-30T06:07:33.286Z,98141.41
2023-06-30T06:09:33.946Z,98141.07
2023-06-30T06:11:34.504Z,98142.38
2023-06-30T06:13:35.395Z,98144.81
2023-06-30T06:15:36.150Z,98142.11
2023-06-30T06:17:37.074Z,98138.59
2023-06-30T06:19:37.910Z,98136.25
2023-06-30T06:21:39.132Z,98135.47
2023-06-30T06:23:39.724Z,98137.34
2023-06-30T06:25:40.474Z,98141.20
2023-06-30T06:27:31.120Z,98148.05
2023-06-30T06:29:31.805Z,98144.36
2023-06-30T06:31:25.551Z,98142.44
2023-06-30T06:33:26.797Z,98146.44
2023-06-30T06:35:27.678Z,98143.92
2023-06-30T06:37:20.299Z,98146.89
2023-06-30T06:39:20.664Z,98146.40
2023-06-30T06:41:16.301Z,98148.79
2023-06-30T06:43:09.936Z,98147.89
2023-06-30T06:45:10.577Z,98149.85
2023-06-30T06:47:11.302Z,98151.34
2023-06-30T06:49:11.752Z,98147.79
2023-06-30T06:51:12.407Z,98146.57
2023-06-30T06:53:13.302Z,98144.17
2023-06-30T06:55:14.107Z,98144.02
2023-06-30T06:57:04.606Z,98148.83
2023-06-30T06:59:04.720Z,98146.46
2023-06-30T07:01:04.995Z,98145.88
2023-06-30T07:03:05.475Z,98147.63
2023-06-30T07:04:59.322Z,98145.40
2023-06-30T07:06:53.993Z,98148.00
2023-06-30T07:08:46.804Z,98147.06
2023-06-30T07:10:46.359Z,98139.80
2023-06-30T07:12:47.369Z,98132.14
2023-06-30T07:14:50.121Z,98144.38
2023-06-30T07:16:50.897Z,98140.51
2023-06-30T07:18:40.465Z,98141.64
2023-06-30T07:20:41.146Z,98145.55
2023-06-30T07:22:42.194Z,98140.52
2023-06-30T07:24:43.932Z,98140.21
2023-06-30T07:26:37.895Z,98142.77
2023-06-30T07:28:38.668Z,98140.90
2023-06-30T07:30:39.315Z,98138.91
2023-06-30T07:32:30.129Z,98137.42
2023-06-30T07:34:30.748Z,98138.13
2023-06-30T07:36:30.548Z,98130.51
2023-06-30T07:38:31.048Z,98130.55
2023-06-30T07:40:45.887Z,98127.42
2023-06-30T07:42:43.946Z,98121.28
2023-06-30T07:44:44.654Z,98122.96
2023-06-30T07:46:38.191Z,98121.41
2023-06-30T07:48:38.842Z,98120.96
2023-06-30T07:50:38.762Z,98124.98
2023-06-30T07:52:40.409Z,98122.55
2023-06-30T07:54:42.514Z,98118.86
2023-06-30T07:56:43.937Z,98117.96
2023-06-30T07:58:38.131Z,98117.54
2023-06-30T08:00:31.631Z,98117.52
2023-06-30T08:02:32.450Z,98116.83
2023-06-30T08:04:33.291Z,98113.20
2023-06-30T08:06:16.208Z,98107.21
2023-06-30T08:08:09.716Z,98105.44
2023-06-30T08:10:10.391Z,98105.80
2023-06-30T08:12:10.809Z,98103.40
2023-06-30T08:14:11.444Z,98102.27
2023-06-30T08:16:10.572Z,98099.79
2023-06-30T08:18:11.332Z,98102.26
2023-06-30T08:20:12.261Z,98083.62
2023-06-30T08:22:13.451Z,98095.13
2023-06-30T08:24:08.245Z,98097.77
2023-06-30T08:26:09.055Z,98093.59
2023-06-30T08:28:08.476Z,98097.96
2023-06-30T08:30:08.882Z,98099.05
2023-06-30T08:31:54.924Z,98092.19
2023-06-30T08:33:54.639Z,98092.23
2023-06-30T08:35:52.111Z,98093.23
2023-06-30T08:37:45.483Z,98088.77
2023-06-30T08:39:46.197Z,98088.05
2023-06-30T08:41:39.123Z,98087.02
2023-06-30T08:43:39.728Z,98085.05
2023-06-30T08:45:39.212Z,98084.23
2023-06-30T08:47:39.927Z,98086.66
2023-06-30T08:49:40.927Z,98086.02
2023-06-30T08:51:40.366Z,98081.79
2023-06-30T08:53:39.800Z,98082.95
2023-06-30T08:55:40.403Z,98085.85
2023-06-30T08:57:33.937Z,98084.87
2023-06-30T08:59:30.573Z,98088.66
2023-06-30T09:01:31.102Z,98094.19
2023-06-30T09:03:31.836Z,98092.23
2023-06-30T09:05:32.765Z,98087.48
2023-06-30T09:07:33.878Z,98093.48
2023-06-30T09:09:34.178Z,98094.34
2023-06-30T09:11:34.810Z,98095.77
2023-06-30T09:13:35.352Z,98096.19
2023-06-30T09:15:36.047Z,98094.95
2023-06-30T09:17:36.822Z,98095.84
2023-06-30T09:19:37.751Z,98093.65
2023-06-30T09:21:38.397Z,98090.44
2023-06-30T09:23:39.430Z,98095.29
2023-06-30T09:25:39.799Z,98089.98
2023-06-30T09:27:40.800Z,98085.83
2023-06-30T09:29:41.758Z,98084.02
2023-06-30T09:31:28.101Z,98090.42
2023-06-30T09:33:20.179Z,98083.99
2023-06-30T09:35:19.542Z,98084.12
2023-06-30T09:37:19.721Z,98084.64
2023-06-30T09:39:09.640Z,98085.80
2023-06-30T09:40:53.259Z,98086.77
2023-06-30T09:42:38.293Z,98088.34
2023-06-30T09:44:39.119Z,98085.73
2023-06-30T09:46:40.148Z,98083.00
2023-06-30T09:48:41.432Z,98082.04
2023-06-30T09:50:41.990Z,98082.27
2023-06-30T09:52:42.723Z,98087.08
2023-06-30T09:54:43.795Z,98089.17
2023-06-30T09:56:43.914Z,98081.84
2023-06-30T09:58:44.602Z,98082.77
2023-06-30T10:00:38.357Z,98078.16
2023-06-30T10:02:31.633Z,98078.68
2023-06-30T10:04:32.551Z,98084.52
2023-06-30T10:06:33.720Z,98080.84
2023-06-30T10:08:34.383Z,98079.04
2023-06-30T10:10:35.058Z,98079.73
2023-06-30T10:12:35.997Z,98077.58
2023-06-30T10:14:26.250Z,98078.20
2023-06-30T10:16:27.530Z,98074.54
2023-06-30T10:18:28.284Z,98076.30
2023-06-30T10:20:42.339Z,98073.14
2023-06-30T10:22:40.112Z,98073.71
2023-06-30T10:24:28.659Z,98067.20
2023-06-30T10:26:14.075Z,98067.81
2023-06-30T10:28:14.395Z,98063.58
2023-06-30T10:29:49.526Z,98060.27
2023-06-30T10:31:43.906Z,98058.66
2023-06-30T10:33:38.510Z,98052.88
2023-06-30T10:35:39.095Z,98064.21
2023-06-30T10:37:17.074Z,98059.97
2023-06-30T10:39:02.303Z,98059.98
2023-06-30T10:40:56.396Z,98053.34
2023-06-30T10:42:56.900Z,98054.61
2023-06-30T10:44:50.058Z,98051.60
2023-06-30T10:46:50.907Z,98045.96
2023-06-30T10:48:43.984Z,98036.29
2023-06-30T10:50:44.859Z,98044.85
2023-06-30T10:52:45.796Z,98045.36
2023-06-30T10:54:35.061Z,98039.80
2023-06-30T10:55:58.868Z,98040.61
2023-06-30T10:57:20.826Z,98036.32
2023-06-30T10:59:13.779Z,98035.27
2023-06-30T11:00:58.824Z,98034.98
2023-06-30T11:02:23.016Z,98034.87
2023-06-30T11:04:06.229Z,98026.83
2023-06-30T11:05:33.743Z,98030.92
2023-06-30T11:09:06.605Z,98028.52
2023-06-30T11:10:39.858Z,98027.44
2023-06-30T11:12:13.231Z,98015.09
2023-06-30T11:13:58.017Z,98028.27
2023-06-30T11:15:42.499Z,98027.16
2023-06-30T11:17:16.223Z,98025.14
2023-06-30T11:18:45.553Z,98021.70
2023-06-30T11:20:07.762Z,98012.35
2023-06-30T11:21:48.660Z,98021.94
2023-06-30T11:23:13.028Z,98015.15
2023-06-30T11:24:37.079Z,98021.09
2023-06-30T11:26:18.189Z,98017.34
2023-06-30T11:27:51.791Z,98015.23
2023-06-30T11:29:25.224Z,98016.64
2023-06-30T11:30:58.901Z,98017.77
2023-06-30T11:32:39.472Z,98013.24
2023-06-30T11:34:15.848Z,98015.42
2023-06-30T11:36:00.829Z,98014.25
2023-06-30T11:37:42.708Z,98013.02
2023-06-30T11:39:11.857Z,98012.50
2023-06-30T11:40:45.024Z,98009.81
2023-06-30T11:42:39.313Z,98007.55
2023-06-30T11:46:24.788Z,98008.61
2023-06-30T11:47:59.920Z,98007.26
2023-06-30T11:49:36.397Z,97999.06
2023-06-30T11:51:17.825Z,98006.98
2023-06-30T11:53:11.204Z,98003.15
2023-06-30T11:54:42.604Z,98005.59
2023-06-30T11:56:18.280Z,97997.23
2023-06-30T11:57:51.537Z,97993.10
2023-06-30T11:59:26.059Z,97998.25
2023-06-30T12:00:57.441Z,97996.02
2023-06-30T12:02:30.932Z,97994.28
2023-06-30T12:04:02.447Z,97992.50
2023-06-30T12:05:43.421Z,97991.45
2023-06-30T12:07:13.242Z,97988.86
2023-06-30T12:08:41.700Z,97984.45
2023-06-30T12:10:11.198Z,97971.56
2023-06-30T12:11:42.387Z,97979.62
2023-06-30T12:13:15.941Z,97977.32
2023-06-30T12:14:52.653Z,97969.98
2023-06-30T12:16:37.903Z,97980.71
2023-06-30T12:18:18.433Z,97976.41
2023-06-30T12:19:51.516Z,97975.54
2023-06-30T12:21:24.929Z,97973.83
2023-06-30T12:23:10.359Z,97975.90
2023-06-30T12:24:46.136Z,97973.67
2023-06-30T12:26:27.984Z,97976.19
2023-06-30T12:28:22.503Z,97976.19
2023-06-30T12:29:48.961Z,97973.58
2023-06-30T12:31:20.534Z,97976.65
2023-06-30T12:33:01.388Z,97975.13
2023-06-30T12:34:32.854Z,97976.81
2023-06-30T12:35:59.496Z,97974.10
2023-06-30T12:37:44.570Z,97973.98
2023-06-30T12:39:16.121Z,97967.80
2023-06-30T12:40:50.613Z,97972.41
2023-06-30T12:42:14.666Z,97970.52
2023-06-30T12:43:59.973Z,97970.02
2023-06-30T12:45:44.808Z,97968.16
2023-06-30T12:47:20.533Z,97965.80
2023-06-30T12:48:57.008Z,97964.23
2023-06-30T12:50:30.463Z,97958.07
2023-06-30T12:51:54.801Z,97962.71
2023-06-30T12:53:30.812Z,97962.98
2023-06-30T12:54:55.032Z,97961.69
2023-06-30T12:56:31.810Z,97957.98
2023-06-30T12:58:17.213Z,97952.07
2023-06-30T13:00:02.360Z,97952.89
2023-06-30T13:01:29.095Z,97950.63
2023-06-30T13:02:55.359Z,97950.42
2023-06-30T13:04:40.713Z,97954.02
2023-06-30T13:06:15.238Z,97946.39
2023-06-30T13:07:48.281Z,97952.30
2023-06-30T13:09:29.468Z,97954.70
2023-06-30T13:11:06.172Z,97953.33
2023-06-30T13:12:30.245Z,97950.20
2023-06-30T13:13:52.100Z,97947.14
2023-06-30T13:20:13.251Z,97921.10
2023-06-30T13:21:48.516Z,97939.49
2023-06-30T13:23:36.337Z,97941.24
2023-06-30T13:25:23.590Z,97935.23
2023-06-30T13:26:57.070Z,97930.98
2023-06-30T13:28:30.856Z,97923.69
2023-06-30T13:30:02.371Z,97922.34
2023-06-30T13:31:50.691Z,97935.05
2023-06-30T13:33:26.302Z,97928.17
2023-06-30T13:35:01.408Z,97930.67
2023-06-30T13:36:34.676Z,97934.16
2023-06-30T13:38:19.657Z,97926.55
2023-06-30T13:39:43.824Z,97925.51
2023-06-30T13:41:30.245Z,97920.83
2023-06-30T13:43:06.798Z,97920.89
2023-06-30T13:44:28.466Z,97909.10
2023-06-30T13:45:50.562Z,97919.87
2023-06-30T13:47:12.106Z,97918.01
2023-06-30T13:48:36.365Z,97917.30
2023-06-30T13:50:00.122Z,97919.95
2023-06-30T13:51:24.390Z,97916.63
2023-06-30T13:52:48.750Z,97918.64
2023-06-30T13:54:22.181Z,97914.29
2023-06-30T13:55:51.364Z,97909.92
2023-06-30T13:57:26.837Z,97899.75
2023-06-30T13:58:50.444Z,97908.20
2023-06-30T14:00:27.107Z,97906.87
2023-06-30T14:01:48.943Z,97908.66
2023-06-30T14:03:20.677Z,97906.79
2023-06-30T14:04:42.427Z,97900.92
2023-06-30T14:06:17.615Z,97901.25
2023-06-30T14:07:42.111Z,97900.82
2023-06-30T14:09:13.358Z,97899.77
2023-06-30T14:10:42.961Z,97896.40
2023-06-30T14:12:19.807Z,97894.20
2023-06-30T14:13:53.145Z,97890.60
2023-06-30T14:15:38.889Z,97891.23
2023-06-30T14:17:12.263Z,97891.42
2023-06-30T14:18:41.416Z,97889.75
2023-06-30T14:20:10.489Z,97891.75
2023-06-30T14:21:44.046Z,97889.72
2023-06-30T14:23:17.663Z,97888.42
2023-06-30T14:24:39.260Z,97887.95
2023-06-30T14:26:01.801Z,97889.98
2023-06-30T14:27:24.178Z,97884.83
2023-06-30T14:28:57.445Z,97876.79
2023-06-30T14:30:33.664Z,97882.69
2023-06-30T14:32:09.306Z,97880.60
2023-06-30T14:33:38.053Z,97881.06
2023-06-30T14:35:11.286Z,97874.69
2023-06-30T14:36:46.470Z,97878.63
2023-06-30T14:38:31.388Z,97877.10
2023-06-30T14:40:04.702Z,97874.98
2023-06-30T14:41:40.021Z,97876.65
2023-06-30T14:43:15.964Z,97877.69
2023-06-30T14:45:00.814Z,97878.05
2023-06-30T14:46:30.078Z,97877.84
2023-06-30T14:48:03.054Z,97880.77
2023-06-30T14:49:45.156Z,97881.41
2023-06-30T14:51:18.390Z,97881.14
2023-06-30T14:52:58.713Z,97878.91
2023-06-30T14:54:44.885Z,97877.08
2023-06-30T14:56:18.097Z,97879.41
2023-06-30T14:57:58.570Z,97875.45
2023-06-30T14:59:53.117Z,97877.29
2023-06-30T15:01:26.436Z,97875.36
2023-06-30T15:03:07.172Z,97874.95
2023-06-30T15:04:51.917Z,97877.02
2023-06-30T15:06:16.097Z,97875.71
2023-06-30T15:07:56.925Z,97873.20
2023-06-30T15:09:45.110Z,97871.54
2023-06-30T15:11:18.390Z,97870.36
2023-06-30T15:12:58.703Z,97871.33
2023-06-30T15:14:27.923Z,97866.84
2023-06-30T15:16:03.435Z,97868.06
2023-06-30T15:17:32.438Z,97864.65
2023-06-30T15:19:08.339Z,97864.60
2023-06-30T15:20:53.372Z,97860.02
2023-06-30T15:22:27.088Z,97858.38
2023-06-30T15:24:00.782Z,97858.32
2023-06-30T15:25:39.075Z,97857.52
2023-06-30T15:27:28.445Z,97856.81
2023-06-30T15:29:01.545Z,97856.06
2023-06-30T15:30:37.970Z,97857.33
2023-06-30T15:32:26.091Z,97858.44
2023-06-30T15:34:01.405Z,97856.46
2023-06-30T15:35:37.964Z,97858.17
2023-06-30T15:37:18.575Z,97857.60
2023-06-30T15:39:03.616Z,97855.91
2023-06-30T15:40:48.811Z,97854.48
2023-06-30T15:42:38.146Z,97852.40
2023-06-30T15:44:11.601Z,97855.88
2023-06-30T15:45:56.147Z,97852.38
2023-06-30T15:47:25.397Z,97851.84
2023-06-30T15:49:06.481Z,97848.60
2023-06-30T15:50:28.265Z,97848.94
2023-06-30T15:52:04.048Z,97845.42
2023-06-30T15:53:32.997Z,97844.52
2023-06-30T15:54:56.480Z,97837.35
2023-06-30T15:56:33.067Z,97844.64
2023-06-30T15:58:04.500Z,97841.24
2023-06-30T15:59:37.967Z,97836.98
2023-06-30T16:01:09.463Z,97838.55
2023-06-30T16:02:54.606Z,97835.55
2023-06-30T16:04:39.758Z,97836.60
2023-06-30T16:06:13.096Z,97837.05
2023-06-30T16:07:46.561Z,97826.79
2023-06-30T16:09:22.079Z,97836.04
2023-06-30T16:10:46.267Z,97831.73
2023-06-30T16:12:32.305Z,97830.85
2023-06-30T16:14:17.409Z,97824.77
2023-06-30T16:15:51.004Z,97828.65
2023-06-30T16:17:20.054Z,97827.34
2023-06-30T16:18:53.177Z,97826.48
2023-06-30T16:20:15.278Z,97821.66
2023-06-30T16:21:51.759Z,97822.77
2023-06-30T16:23:36.524Z,97822.98
2023-06-30T16:25:00.114Z,97823.79
2023-06-30T16:26:33.409Z,97826.84
2023-06-30T16:27:54.788Z,97827.17
2023-06-30T16:29:18.973Z,97826.19
2023-06-30T16:30:54.532Z,97822.50
2023-06-30T16:32:39.989Z,97824.10
2023-06-30T16:34:13.433Z,97823.33
2023-06-30T16:35:35.052Z,97824.69
2023-06-30T16:36:58.745Z,97823.55
2023-06-30T16:38:53.141Z,97819.91
2023-06-30T16:40:18.605Z,97818.55
2023-06-30T17:04:15.121Z,97821.49
2023-06-30T17:06:00.153Z,97825.46
2023-06-30T17:07:54.160Z,97822.69
2023-06-30T17:09:23.187Z,97821.67
2023-06-30T17:10:58.345Z,97823.33
2023-06-30T17:12:31.791Z,97821.48
2023-06-30T17:14:01.663Z,97827.69
2023-06-30T17:15:30.666Z,97823.15
2023-06-30T17:16:54.355Z,97824.66
2023-06-30T17:18:38.809Z,97825.13
2023-06-30T17:20:03.754Z,97827.35
2023-06-30T17:21:40.373Z,97830.17
2023-06-30T17:23:16.348Z,97833.13
2023-06-30T17:25:04.830Z,97832.66
2023-06-30T17:26:41.331Z,97836.29
2023-06-30T17:28:26.258Z,97836.08
2023-06-30T17:29:59.329Z,97834.81
2023-06-30T17:31:44.077Z,97837.71
2023-06-30T17:33:33.054Z,97830.17
2023-06-30T17:35:06.373Z,97845.18
2023-06-30T17:36:39.951Z,97849.01
2023-06-30T17:38:14.783Z,97854.23
2023-06-30T17:39:43.561Z,97852.15
2023-06-30T17:41:26.166Z,97850.90
2023-06-30T17:42:59.625Z,97841.40
2023-06-30T17:44:52.849Z,97848.15
2023-06-30T17:46:26.316Z,97845.25
2023-06-30T17:48:11.570Z,97841.84
2023-06-30T17:49:56.525Z,97839.88
2023-06-30T17:51:25.931Z,97839.11
2023-06-30T17:53:10.388Z,97842.04
2023-06-30T17:54:54.950Z,97846.00
2023-06-30T17:56:21.122Z,97851.02
2023-06-30T17:57:54.543Z,97848.02
2023-06-30T17:59:30.064Z,97850.45
2023-06-30T18:01:14.780Z,97849.81
2023-06-30T18:02:45.841Z,97851.25
2023-06-30T18:04:26.705Z,97857.88
2023-06-30T18:05:59.699Z,97857.41
2023-06-30T18:07:32.810Z,97864.13
2023-06-30T18:08:56.730Z,97867.04
2023-06-30T18:10:30.039Z,97875.40
2023-06-30T18:12:03.404Z,97874.48
2023-06-30T18:13:41.399Z,97874.73
2023-06-30T18:15:02.988Z,97876.41
2023-06-30T18:16:33.953Z,97881.71
2023-06-30T18:18:18.685Z,97881.05
2023-06-30T18:20:03.414Z,97880.22
2023-06-30T18:21:37.430Z,97882.43
2023-06-30T18:23:18.323Z,97881.59
2023-06-30T18:24:51.442Z,97880.15
2023-06-30T18:26:26.694Z,97882.73
2023-06-30T18:28:02.198Z,97879.24
2023-06-30T18:29:47.864Z,97877.02
2023-06-30T18:31:21.394Z,97873.15
2023-06-30T18:32:42.879Z,97874.75
2023-06-30T18:34:28.577Z,97875.73
2023-06-30T18:36:01.712Z,97867.14
2023-06-30T18:37:35.703Z,97875.29
2023-06-30T18:39:00.947Z,97875.44
2023-06-30T18:40:47.362Z,97878.14
2023-06-30T18:42:20.689Z,97876.73
2023-06-30T18:43:56.049Z,97877.88
2023-06-30T18:45:29.515Z,97871.20
2023-06-30T18:47:09.522Z,97875.70
2023-06-30T18:48:54.338Z,97876.31
2023-06-30T18:50:25.193Z,97877.79
2023-06-30T18:52:00.419Z,97873.25
2023-06-30T18:53:24.239Z,97879.01
2023-06-30T18:54:59.570Z,97882.24
2023-06-30T18:56:43.014Z,97880.54
2023-06-30T18:58:04.550Z,97883.77
2023-06-30T18:59:49.348Z,97883.66
2023-06-30T19:01:24.857Z,97888.10
2023-06-30T19:02:53.699Z,97890.45
2023-06-30T19:04:46.181Z,97885.42
2023-06-30T19:06:19.396Z,97888.04
2023-06-30T19:07:52.476Z,97888.59
2023-06-30T19:09:33.004Z,97889.48
2023-06-30T19:11:05.767Z,97892.31
2023-06-30T19:12:27.402Z,97890.88
2023-06-30T19:14:02.496Z,97889.20
2023-06-30T19:15:29.024Z,97889.98
2023-06-30T19:16:52.716Z,97891.48
2023-06-30T19:18:28.919Z,97893.62
2023-06-30T19:20:02.061Z,97891.77
2023-06-30T19:21:31.270Z,97894.05
2023-06-30T19:23:16.209Z,97892.58
2023-06-30T19:24:56.186Z,97896.90
2023-06-30T19:26:41.033Z,97897.29
2023-06-30T19:28:26.173Z,97896.63
2023-06-30T19:30:20.186Z,97901.47
2023-06-30T19:31:53.150Z,97902.02
2023-06-30T19:33:26.136Z,97903.62
2023-06-30T19:35:10.771Z,97903.52
2023-06-30T19:36:56.169Z,97900.89
2023-06-30T19:38:18.063Z,97904.03
2023-06-30T19:39:58.275Z,97902.79
2023-06-30T19:41:31.513Z,97907.81
2023-06-30T19:43:16.189Z,97905.14
2023-06-30T19:44:49.250Z,97905.58
2023-06-30T19:46:34.461Z,97903.16
2023-06-30T19:48:09.973Z,97901.80
2023-06-30T19:49:45.171Z,97892.71
2023-06-30T19:51:11.527Z,97907.09
2023-06-30T19:52:56.119Z,97908.02
2023-06-30T19:54:29.659Z,97911.14
2023-06-30T19:56:14.671Z,97910.37
2023-06-30T19:57:59.290Z,97912.29
2023-06-30T19:59:39.849Z,97908.55
2023-06-30T20:01:24.746Z,97916.85
2023-06-30T20:02:58.268Z,97911.55
2023-06-30T20:04:31.552Z,97914.05
2023-06-30T20:06:04.775Z,97919.10
2023-06-30T20:07:37.854Z,97915.14
2023-06-30T20:09:11.608Z,97912.33
2023-06-30T20:10:44.671Z,97915.73
2023-06-30T20:12:18.130Z,97913.80
2023-06-30T20:13:51.272Z,97909.97
2023-06-30T20:15:24.580Z,97909.17
2023-06-30T20:16:53.301Z,97909.07
2023-06-30T20:18:38.061Z,97910.45
2023-06-30T20:20:09.230Z,97901.52
2023-06-30T20:21:44.518Z,97910.09
2023-06-30T20:23:24.948Z,97908.27
2023-06-30T20:24:58.014Z,97909.52
2023-06-30T20:26:33.560Z,97909.77
2023-06-30T20:28:06.658Z,97912.40
2023-06-30T20:29:51.723Z,97908.95
2023-06-30T20:31:25.524Z,97904.33
2023-06-30T20:32:54.653Z,97910.31
2023-06-30T20:34:28.415Z,97910.83
2023-06-30T20:36:04.041Z,97907.89
2023-06-30T20:37:37.901Z,97908.23
2023-06-30T20:39:11.421Z,97912.15
2023-06-30T20:40:51.562Z,97910.57
2023-06-30T20:42:25.942Z,97911.83
2023-06-30T20:44:00.996Z,97913.02
2023-06-30T20:45:45.965Z,97914.15
2023-06-30T20:47:19.185Z,97913.67
2023-06-30T20:48:48.271Z,97912.53
2023-06-30T20:50:33.032Z,97915.52
2023-06-30T20:52:17.633Z,97913.45
2023-06-30T20:53:41.414Z,97918.35
2023-06-30T20:55:14.964Z,97918.17
2023-06-30T20:56:50.489Z,97913.88
2023-06-30T20:58:21.440Z,97917.48
2023-06-30T21:00:06.341Z,97919.89
2023-06-30T21:01:39.749Z,97917.80
2023-06-30T21:03:15.266Z,97918.23
2023-06-30T21:04:38.891Z,97923.58
2023-06-30T21:06:14.781Z,97920.10
2023-06-30T21:07:38.707Z,97920.09
2023-06-30T21:09:22.647Z,97917.20
2023-06-30T21:10:57.955Z,97913.77
2023-06-30T21:12:40.189Z,97915.30
2023-06-30T21:14:24.950Z,97913.17
2023-06-30T21:15:48.853Z,97912.84